sensor_id;sensor_type;location;lat;lon;timestamp;pressure;altitude;pressure_sealevel;temperature;humidity
40838;BME280;29632;49.168;9.848;2023-06-24T00:01:00;97693.91;;;23.17;43.25
40838;BME280;29632;49.168;9.848;2023-06-24T00:03:26;97697.94;;;23.13;43.31
40838;BME280;29632;49.168;9.848;2023-06-24T00:05:52;97704.69;;;23.09;43.18
40838;BME280;29632;49.168;9.848;2023-06-24T00:08:19;97703.47;;;23.05;43.22
40838;BME280;29632;49.168;9.848;2023-06-24T00:10:46;97705.50;;;23.03;43.38
40838;BME280;29632;49.168;9.848;2023-06-24T00:13:13;97695.47;;;22.98;43.39
40838;BME280;29632;49.168;9.848;2023-06-24T00:15:38;97699.31;;;22.96;43.41
40838;BME280;29632;49.168;9.848;2023-06-24T00:18:09;97699.09;;;22.91;43.23
40838;BME280;29632;49.168;9.848;2023-06-24T00:20:35;97695.41;;;22.85;43.29
40838;BME280;29632;49.168;9.848;2023-06-24T00:23:00;97694.00;;;22.83;43.50
40838;BME280;29632;49.168;9.848;2023-06-24T00:25:26;97705.19;;;22.78;43.31
40838;BME280;29632;49.168;9.848;2023-06-24T00:27:52;97699.47;;;22.74;43.32
40838;BME280;29632;49.168;9.848;2023-06-24T00:30:18;97698.25;;;22.70;43.51
40838;BME280;29632;49.168;9.848;2023-06-24T00:32:44;97704.13;;;22.66;43.26
40838;BME280;29632;49.168;9.848;2023-06-24T00:35:09;97700.44;;;22.60;43.45
40838;BME280;29632;49.168;9.848;2023-06-24T00:37:38;97699.00;;;22.57;43.68
40838;BME280;29632;49.168;9.848;2023-06-24T00:40:04;97695.28;;;22.52;43.36
40838;BME280;29632;49.168;9.848;2023-06-24T00:42:30;97699.38;;;22.48;43.41
40838;BME280;29632;49.168;9.848;2023-06-24T00:44:56;97696.28;;;22.44;43.51
40838;BME280;29632;49.168;9.848;2023-06-24T00:47:22;97700.56;;;22.38;43.36
40838;BME280;29632;49.168;9.848;2023-06-24T00:49:49;97698.09;;;22.37;43.48
40838;BME280;29632;49.168;9.848;2023-06-24T00:52:16;97700.34;;;22.33;43.60
40838;BME280;29632;49.168;9.848;2023-06-24T00:54:43;97701.09;;;22.27;43.38
40838;BME280;29632;49.168;9.848;2023-06-24T00:57:09;97706.16;;;22.22;43.37
40838;BME280;29632;49.168;9.848;2023-06-24T00:59:36;97703.25;;;22.17;43.58
40838;BME280;29632;49.168;9.848;2023-06-24T01:02:03;97700.19;;;22.13;43.60
40838;BME280;29632;49.168;9.848;2023-06-24T01:11:13;97676.81;;;21.95;43.74
40838;BME280;29632;49.168;9.848;2023-06-24T01:13:39;97674.75;;;21.91;43.64
40838;BME280;29632;49.168;9.848;2023-06-24T01:16:08;97676.97;;;21.87;43.51
40838;BME280;29632;49.168;9.848;2023-06-24T01:18:44;97675.91;;;21.81;43.47
40838;BME280;29632;49.168;9.848;2023-06-24T01:21:26;97668.97;;;21.80;43.64
40838;BME280;29632;49.168;9.848;2023-06-24T01:33:04;97674.31;;;21.59;43.68
40838;BME280;29632;49.168;9.848;2023-06-24T01:35:34;97673.69;;;21.57;43.75
40838;BME280;29632;49.168;9.848;2023-06-24T01:38:03;97670.63;;;21.53;43.75
40838;BME280;29632;49.168;9.848;2023-06-24T01:40:40;97663.41;;;21.47;43.63
40838;BME280;29632;49.168;9.848;2023-06-24T01:43:08;97663.75;;;21.44;43.76
40838;BME280;29632;49.168;9.848;2023-06-24T01:45:37;97665.16;;;21.40;43.78
40838;BME280;29632;49.168;9.848;2023-06-24T01:48:14;97675.16;;;21.38;43.54
40838;BME280;29632;49.168;9.848;2023-06-24T01:51:03;97677.53;;;21.33;43.64
40838;BME280;29632;49.168;9.848;2023-06-24T01:53:34;97677.09;;;21.29;43.61
40838;BME280;29632;49.168;9.848;2023-06-24T01:56:00;97668.72;;;21.25;43.81
40838;BME280;29632;49.168;9.848;2023-06-24T01:58:27;97665.63;;;21.22;43.69
40838;BME280;29632;49.168;9.848;2023-06-24T02:00:53;97662.38;;;21.20;43.76
40838;BME280;29632;49.168;9.848;2023-06-24T02:03:20;97657.44;;;21.17;43.83
40838;BME280;29632;49.168;9.848;2023-06-24T02:05:46;97655.97;;;21.14;43.64
40838;BME280;29632;49.168;9.848;2023-06-24T02:08:13;97663.28;;;21.12;43.87
40838;BME280;29632;49.168;9.848;2023-06-24T02:10:39;97652.44;;;21.07;43.87
40838;BME280;29632;49.168;9.848;2023-06-24T02:13:06;97653.84;;;21.03;43.90
40838;BME280;29632;49.168;9.848;2023-06-24T02:15:33;97655.44;;;20.97;43.88
40838;BME280;29632;49.168;9.848;2023-06-24T02:18:00;97655.19;;;20.92;43.97
40838;BME280;29632;49.168;9.848;2023-06-24T02:20:27;97643.13;;;20.89;43.97
40838;BME280;29632;49.168;9.848;2023-06-24T02:22:54;97639.22;;;20.85;43.68
40838;BME280;29632;49.168;9.848;2023-06-24T02:25:22;97639.41;;;20.84;43.83
40838;BME280;29632;49.168;9.848;2023-06-24T02:27:48;97642.03;;;20.84;43.97
40838;BME280;29632;49.168;9.848;2023-06-24T02:30:15;97637.97;;;20.81;43.72
40838;BME280;29632;49.168;9.848;2023-06-24T02:32:41;97643.44;;;20.80;43.83
40838;BME280;29632;49.168;9.848;2023-06-24T02:35:07;97643.81;;;20.77;43.86
40838;BME280;29632;49.168;9.848;2023-06-24T02:37:33;97642.16;;;20.75;43.88
40838;BME280;29632;49.168;9.848;2023-06-24T02:39:59;97648.66;;;20.73;43.76
40838;BME280;29632;49.168;9.848;2023-06-24T02:42:25;97641.91;;;20.70;44.02
40838;BME280;29632;49.168;9.848;2023-06-24T02:44:50;97640.47;;;20.68;43.82
40838;BME280;29632;49.168;9.848;2023-06-24T02:47:16;97640.66;;;20.66;43.96
40838;BME280;29632;49.168;9.848;2023-06-24T02:49:44;97642.66;;;20.64;43.84
40838;BME280;29632;49.168;9.848;2023-06-24T02:52:12;97642.03;;;20.62;43.99
40838;BME280;29632;49.168;9.848;2023-06-24T02:54:38;97644.38;;;20.57;43.92
40838;BME280;29632;49.168;9.848;2023-06-24T02:57:05;97649.06;;;20.55;43.84
40838;BME280;29632;49.168;9.848;2023-06-24T02:59:32;97649.78;;;20.49;43.94
40838;BME280;29632;49.168;9.848;2023-06-24T03:01:58;97651.00;;;20.46;43.95
40838;BME280;29632;49.168;9.848;2023-06-24T03:04:24;97645.59;;;20.40;43.86
40838;BME280;29632;49.168;9.848;2023-06-24T03:06:50;97644.97;;;20.37;44.10
40838;BME280;29632;49.168;9.848;2023-06-24T03:09:16;97651.09;;;20.38;43.80
40838;BME280;29632;49.168;9.848;2023-06-24T03:11:42;97654.72;;;20.37;43.70
40838;BME280;29632;49.168;9.848;2023-06-24T03:14:09;97656.38;;;20.38;43.86
40838;BME280;29632;49.168;9.848;2023-06-24T03:16:35;97655.34;;;20.39;43.82
40838;BME280;29632;49.168;9.848;2023-06-24T03:19:01;97657.19;;;20.38;44.04
40838;BME280;29632;49.168;9.848;2023-06-24T03:21:26;97666.16;;;20.37;43.89
40838;BME280;29632;49.168;9.848;2023-06-24T03:23:54;97670.78;;;20.35;44.09
40838;BME280;29632;49.168;9.848;2023-06-24T03:26:20;97669.34;;;20.33;43.93
40838;BME280;29632;49.168;9.848;2023-06-24T03:28:46;97671.34;;;20.31;44.04
40838;BME280;29632;49.168;9.848;2023-06-24T03:31:11;97669.88;;;20.28;43.87
40838;BME280;29632;49.168;9.848;2023-06-24T03:33:37;97672.91;;;20.25;43.89
40838;BME280;29632;49.168;9.848;2023-06-24T03:36:03;97668.63;;;20.24;43.91
40838;BME280;29632;49.168;9.848;2023-06-24T03:38:28;97666.16;;;20.23;43.93
40838;BME280;29632;49.168;9.848;2023-06-24T03:40:54;97668.97;;;20.21;44.07
40838;BME280;29632;49.168;9.848;2023-06-24T03:43:21;97670.63;;;20.22;44.05
40838;BME280;29632;49.168;9.848;2023-06-24T03:45:46;97679.38;;;20.23;44.03
40838;BME280;29632;49.168;9.848;2023-06-24T03:48:13;97672.44;;;20.22;43.98
40838;BME280;29632;49.168;9.848;2023-06-24T03:50:38;97684.03;;;20.21;44.18
40838;BME280;29632;49.168;9.848;2023-06-24T03:53:05;97685.41;;;20.16;43.99
40838;BME280;29632;49.168;9.848;2023-06-24T03:55:31;97692.69;;;20.14;43.99
40838;BME280;29632;49.168;9.848;2023-06-24T03:57:57;97688.59;;;20.12;44.00
40838;BME280;29632;49.168;9.848;2023-06-24T04:00:22;97689.41;;;20.12;44.19
40838;BME280;29632;49.168;9.848;2023-06-24T04:02:48;97691.22;;;20.12;44.25
40838;BME280;29632;49.168;9.848;2023-06-24T04:05:14;97690.03;;;20.14;44.03
40838;BME280;29632;49.168;9.848;2023-06-24T04:07:40;97695.97;;;20.16;44.15
40838;BME280;29632;49.168;9.848;2023-06-24T04:10:06;97693.97;;;20.18;44.11
40838;BME280;29632;49.168;9.848;2023-06-24T04:12:35;97702.53;;;20.21;44.18
40838;BME280;29632;49.168;9.848;2023-06-24T04:15:02;97699.53;;;20.24;43.99
40838;BME280;29632;49.168;9.848;2023-06-24T04:17:29;97707.09;;;20.27;44.16
40838;BME280;29632;49.168;9.848;2023-06-24T04:19:55;97711.03;;;20.31;44.08
40838;BME280;29632;49.168;9.848;2023-06-24T04:22:20;97714.03;;;20.28;44.10
40838;BME280;29632;49.168;9.848;2023-06-24T04:24:46;97717.88;;;20.25;44.04
40838;BME280;29632;49.168;9.848;2023-06-24T04:27:12;97709.72;;;20.27;44.20
40838;BME280;29632;49.168;9.848;2023-06-24T04:29:37;97709.38;;;20.30;44.18
40838;BME280;29632;49.168;9.848;2023-06-24T04:32:10;97708.19;;;20.32;44.14
40838;BME280;29632;49.168;9.848;2023-06-24T04:34:36;97713.09;;;20.35;44.13
40838;BME280;29632;49.168;9.848;2023-06-24T04:37:01;97716.41;;;20.37;44.27
40838;BME280;29632;49.168;9.848;2023-06-24T04:39:27;97714.84;;;20.43;44.21
40838;BME280;29632;49.168;9.848;2023-06-24T04:41:53;97713.47;;;20.47;44.25
40838;BME280;29632;49.168;9.848;2023-06-24T04:44:18;97718.03;;;20.53;43.98
40838;BME280;29632;49.168;9.848;2023-06-24T04:46:45;97713.00;;;20.59;43.96
40838;BME280;29632;49.168;9.848;2023-06-24T04:49:11;97713.31;;;20.64;44.15
40838;BME280;29632;49.168;9.848;2023-06-24T04:51:37;97715.19;;;20.70;44.00
40838;BME280;29632;49.168;9.848;2023-06-24T04:54:03;97718.09;;;20.75;44.17
40838;BME280;29632;49.168;9.848;2023-06-24T04:56:29;97719.19;;;20.81;44.03
40838;BME280;29632;49.168;9.848;2023-06-24T04:58:55;97721.28;;;20.85;44.09
40838;BME280;29632;49.168;9.848;2023-06-24T05:01:21;97728.47;;;20.91;43.96
40838;BME280;29632;49.168;9.848;2023-06-24T05:03:47;97727.09;;;20.96;44.08
40838;BME280;29632;49.168;9.848;2023-06-24T05:06:13;97729.16;;;21.00;44.17
40838;BME280;29632;49.168;9.848;2023-06-24T05:08:39;97730.28;;;21.06;44.11
40838;BME280;29632;49.168;9.848;2023-06-24T05:11:05;97730.53;;;21.11;44.08
40838;BME280;29632;49.168;9.848;2023-06-24T05:13:31;97733.44;;;21.16;44.10
40838;BME280;29632;49.168;9.848;2023-06-24T05:15:56;97728.59;;;21.20;44.06
40838;BME280;29632;49.168;9.848;2023-06-24T05:18:22;97727.00;;;21.25;44.03
40838;BME280;29632;49.168;9.848;2023-06-24T05:20:48;97721.13;;;21.30;44.06
40838;BME280;29632;49.168;9.848;2023-06-24T05:23:13;97732.81;;;21.36;44.05
40838;BME280;29632;49.168;9.848;2023-06-24T05:25:39;97728.56;;;21.41;44.29
40838;BME280;29632;49.168;9.848;2023-06-24T05:28:05;97729.66;;;21.47;44.10
40838;BME280;29632;49.168;9.848;2023-06-24T05:30:30;97734.03;;;21.55;44.10
40838;BME280;29632;49.168;9.848;2023-06-24T05:32:56;97734.28;;;21.60;43.97
40838;BME280;29632;49.168;9.848;2023-06-24T05:35:22;97735.53;;;21.64;44.12
40838;BME280;29632;49.168;9.848;2023-06-24T05:37:47;97733.13;;;21.69;43.98
40838;BME280;29632;49.168;9.848;2023-06-24T05:40:13;97729.88;;;21.74;44.07
40838;BME280;29632;49.168;9.848;2023-06-24T05:42:38;97742.38;;;21.80;43.95
40838;BME280;29632;49.168;9.848;2023-06-24T05:45:05;97734.69;;;21.85;43.99
40838;BME280;29632;49.168;9.848;2023-06-24T05:47:32;97735.72;;;21.91;43.89
40838;BME280;29632;49.168;9.848;2023-06-24T05:49:57;97740.28;;;21.97;43.95
40838;BME280;29632;49.168;9.848;2023-06-24T05:52:24;97741.53;;;22.01;43.86
40838;BME280;29632;49.168;9.848;2023-06-24T05:54:49;97744.41;;;22.06;43.75
40838;BME280;29632;49.168;9.848;2023-06-24T05:57:15;97743.84;;;22.11;43.90
40838;BME280;29632;49.168;9.848;2023-06-24T05:59:41;97743.25;;;22.15;43.79
40838;BME280;29632;49.168;9.848;2023-06-24T06:02:07;97738.38;;;22.19;43.81
40838;BME280;29632;49.168;9.848;2023-06-24T06:04:32;97742.09;;;22.24;44.05
40838;BME280;29632;49.168;9.848;2023-06-24T06:06:58;97742.78;;;22.33;43.88
40838;BME280;29632;49.168;9.848;2023-06-24T06:09:24;97745.44;;;22.40;43.61
40838;BME280;29632;49.168;9.848;2023-06-24T06:11:49;97747.97;;;22.48;43.62
40838;BME280;29632;49.168;9.848;2023-06-24T06:14:15;97750.03;;;22.53;43.71
40838;BME280;29632;49.168;9.848;2023-06-24T06:16:40;97746.56;;;22.59;43.77
40838;BME280;29632;49.168;9.848;2023-06-24T06:19:06;97748.44;;;22.65;43.52
40838;BME280;29632;49.168;9.848;2023-06-24T06:21:32;97744.38;;;22.69;43.68
40838;BME280;29632;49.168;9.848;2023-06-24T06:23:57;97749.72;;;22.76;43.66
40838;BME280;29632;49.168;9.848;2023-06-24T06:26:23;97736.25;;;22.77;43.55
40838;BME280;29632;49.168;9.848;2023-06-24T06:28:49;97737.47;;;22.81;43.47
40838;BME280;29632;49.168;9.848;2023-06-24T06:31:15;97740.16;;;22.88;43.55
40838;BME280;29632;49.168;9.848;2023-06-24T06:33:42;97738.53;;;22.94;43.59
40838;BME280;29632;49.168;9.848;2023-06-24T06:36:07;97743.88;;;23.00;43.59
40838;BME280;29632;49.168;9.848;2023-06-24T06:38:33;97742.28;;;23.06;43.31
40838;BME280;29632;49.168;9.848;2023-06-24T06:40:59;97739.66;;;23.13;43.33
40838;BME280;29632;49.168;9.848;2023-06-24T06:43:25;97742.31;;;23.19;43.29
40838;BME280;29632;49.168;9.848;2023-06-24T06:45:51;97747.84;;;23.25;43.32
40838;BME280;29632;49.168;9.848;2023-06-24T06:48:16;97747.03;;;23.31;43.47
40838;BME280;29632;49.168;9.848;2023-06-24T06:50:42;97737.47;;;23.36;43.19
40838;BME280;29632;49.168;9.848;2023-06-24T06:53:08;97740.34;;;23.42;43.25
40838;BME280;29632;49.168;9.848;2023-06-24T06:55:33;97745.63;;;23.48;43.08
40838;BME280;29632;49.168;9.848;2023-06-24T06:57:59;97735.84;;;23.55;43.00
40838;BME280;29632;49.168;9.848;2023-06-24T07:00:24;97737.69;;;23.62;43.28
40838;BME280;29632;49.168;9.848;2023-06-24T07:02:50;97742.81;;;23.70;43.27
40838;BME280;29632;49.168;9.848;2023-06-24T07:05:16;97738.50;;;23.75;43.05
40838;BME280;29632;49.168;9.848;2023-06-24T07:07:41;97735.06;;;23.82;43.23
40838;BME280;29632;49.168;9.848;2023-06-24T07:10:09;97731.97;;;23.91;43.18
40838;BME280;29632;49.168;9.848;2023-06-24T07:12:35;97734.63;;;23.98;42.99
40838;BME280;29632;49.168;9.848;2023-06-24T07:15:01;97736.25;;;24.06;42.75
40838;BME280;29632;49.168;9.848;2023-06-24T07:17:26;97736.03;;;24.14;43.11
40838;BME280;29632;49.168;9.848;2023-06-24T07:19:52;97736.44;;;24.24;43.08
40838;BME280;29632;49.168;9.848;2023-06-24T07:22:18;97743.16;;;24.34;42.59
40838;BME280;29632;49.168;9.848;2023-06-24T07:24:43;97735.75;;;24.42;42.56
40838;BME280;29632;49.168;9.848;2023-06-24T07:27:09;97736.34;;;24.51;42.40
40838;BME280;29632;49.168;9.848;2023-06-24T07:29:35;97722.84;;;24.59;42.45
40838;BME280;29632;49.168;9.848;2023-06-24T07:32:00;97732.22;;;24.68;42.30
40838;BME280;29632;49.168;9.848;2023-06-24T07:34:26;97729.31;;;24.77;42.61
40838;BME280;29632;49.168;9.848;2023-06-24T07:36:52;97723.13;;;24.83;42.34
40838;BME280;29632;49.168;9.848;2023-06-24T07:39:17;97728.66;;;24.88;42.52
40838;BME280;29632;49.168;9.848;2023-06-24T07:41:43;97732.16;;;24.88;42.32
40838;BME280;29632;49.168;9.848;2023-06-24T07:44:09;97734.16;;;24.93;42.47
40838;BME280;29632;49.168;9.848;2023-06-24T07:46:35;97733.72;;;25.03;42.51
40838;BME280;29632;49.168;9.848;2023-06-24T07:49:00;97733.00;;;25.14;42.26
40838;BME280;29632;49.168;9.848;2023-06-24T07:51:27;97734.84;;;25.20;42.36
40838;BME280;29632;49.168;9.848;2023-06-24T07:53:52;97738.09;;;25.29;42.37
40838;BME280;29632;49.168;9.848;2023-06-24T07:56:18;97735.78;;;25.39;42.14
40838;BME280;29632;49.168;9.848;2023-06-24T07:58:44;97731.38;;;25.52;41.96
40838;BME280;29632;49.168;9.848;2023-06-24T08:01:09;97723.94;;;25.60;41.92
40838;BME280;29632;49.168;9.848;2023-06-24T08:03:35;97723.88;;;25.67;42.30
40838;BME280;29632;49.168;9.848;2023-06-24T08:06:02;97722.19;;;25.73;41.95
40838;BME280;29632;49.168;9.848;2023-06-24T08:08:28;97722.13;;;25.79;42.00
40838;BME280;29632;49.168;9.848;2023-06-24T08:10:54;97724.50;;;25.88;41.78
40838;BME280;29632;49.168;9.848;2023-06-24T08:13:20;97724.25;;;25.96;41.83
40838;BME280;29632;49.168;9.848;2023-06-24T08:15:46;97714.13;;;26.05;41.57
40838;BME280;29632;49.168;9.848;2023-06-24T08:18:11;97721.41;;;26.16;41.47
40838;BME280;29632;49.168;9.848;2023-06-24T08:20:37;97718.81;;;26.28;41.72
40838;BME280;29632;49.168;9.848;2023-06-24T08:23:03;97724.44;;;26.38;41.54
40838;BME280;29632;49.168;9.848;2023-06-24T08:25:28;97717.75;;;26.47;41.32
40838;BME280;29632;49.168;9.848;2023-06-24T08:27:54;97721.78;;;26.56;41.27
40838;BME280;29632;49.168;9.848;2023-06-24T08:30:20;97725.44;;;26.62;41.15
40838;BME280;29632;49.168;9.848;2023-06-24T08:32:45;97715.50;;;26.69;41.25
40838;BME280;29632;49.168;9.848;2023-06-24T08:35:11;97713.53;;;26.77;41.19
40838;BME280;29632;49.168;9.848;2023-06-24T08:37:37;97716.72;;;26.85;41.15
40838;BME280;29632;49.168;9.848;2023-06-24T08:40:03;97715.25;;;26.89;40.97
40838;BME280;29632;49.168;9.848;2023-06-24T08:42:30;97718.06;;;26.94;40.98
40838;BME280;29632;49.168;9.848;2023-06-24T08:44:56;97713.44;;;27.02;40.97
40838;BME280;29632;49.168;9.848;2023-06-24T08:47:23;97711.94;;;27.06;40.97
40838;BME280;29632;49.168;9.848;2023-06-24T08:49:52;97714.16;;;27.09;40.99
40838;BME280;29632;49.168;9.848;2023-06-24T08:52:21;97709.97;;;27.13;40.47
40838;BME280;29632;49.168;9.848;2023-06-24T08:54:51;97718.72;;;27.20;40.66
40838;BME280;29632;49.168;9.848;2023-06-24T08:57:17;97712.47;;;27.26;40.82
40838;BME280;29632;49.168;9.848;2023-06-24T08:59:44;97712.28;;;27.28;40.87
40838;BME280;29632;49.168;9.848;2023-06-24T09:02:09;97710.75;;;27.32;41.02
40838;BME280;29632;49.168;9.848;2023-06-24T09:04:36;97723.31;;;27.31;40.43
40838;BME280;29632;49.168;9.848;2023-06-24T09:07:02;97717.50;;;27.35;40.87
40838;BME280;29632;49.168;9.848;2023-06-24T09:09:28;97715.91;;;27.45;40.55
40838;BME280;29632;49.168;9.848;2023-06-24T09:11:59;97723.13;;;27.57;40.43
40838;BME280;29632;49.168;9.848;2023-06-24T09:14:25;97722.56;;;27.66;40.45
40838;BME280;29632;49.168;9.848;2023-06-24T09:16:55;97714.66;;;27.72;40.30
40838;BME280;29632;49.168;9.848;2023-06-24T09:19:25;97705.56;;;27.73;40.32
40838;BME280;29632;49.168;9.848;2023-06-24T09:22:01;97708.72;;;27.81;40.03
40838;BME280;29632;49.168;9.848;2023-06-24T09:24:29;97699.78;;;27.87;40.22
40838;BME280;29632;49.168;9.848;2023-06-24T09:26:56;97703.19;;;27.95;40.11
40838;BME280;29632;49.168;9.848;2023-06-24T09:29:27;97700.16;;;28.03;40.20
40838;BME280;29632;49.168;9.848;2023-06-24T09:31:53;97701.44;;;28.12;39.88
40838;BME280;29632;49.168;9.848;2023-06-24T09:34:21;97702.09;;;28.19;39.98
40838;BME280;29632;49.168;9.848;2023-06-24T09:36:55;97700.34;;;28.25;39.82
40838;BME280;29632;49.168;9.848;2023-06-24T09:39:21;97696.16;;;28.29;39.49
40838;BME280;29632;49.168;9.848;2023-06-24T09:41:51;97693.09;;;28.37;39.49
40838;BME280;29632;49.168;9.848;2023-06-24T09:44:16;97687.97;;;28.48;39.17
40838;BME280;29632;49.168;9.848;2023-06-24T09:46:45;97684.94;;;28.56;39.15
40838;BME280;29632;49.168;9.848;2023-06-24T09:49:10;97687.25;;;28.64;39.17
40838;BME280;29632;49.168;9.848;2023-06-24T09:51:38;97679.38;;;28.74;39.04
40838;BME280;29632;49.168;9.848;2023-06-24T09:54:07;97677.41;;;28.81;39.04
40838;BME280;29632;49.168;9.848;2023-06-24T09:56:36;97675.63;;;28.87;38.84
40838;BME280;29632;49.168;9.848;2023-06-24T09:59:05;97671.97;;;28.93;38.72
40838;BME280;29632;49.168;9.848;2023-06-24T10:01:35;97666.78;;;29.04;38.82
40838;BME280;29632;49.168;9.848;2023-06-24T10:04:02;97668.63;;;29.15;38.96
40838;BME280;29632;49.168;9.848;2023-06-24T10:06:28;97669.38;;;29.27;39.11
40838;BME280;29632;49.168;9.848;2023-06-24T10:08:54;97666.59;;;29.39;38.48
40838;BME280;29632;49.168;9.848;2023-06-24T10:11:20;97659.31;;;29.51;38.38
40838;BME280;29632;49.168;9.848;2023-06-24T10:13:46;97660.03;;;29.64;38.49
40838;BME280;29632;49.168;9.848;2023-06-24T10:16:12;97655.88;;;29.73;38.23
40838;BME280;29632;49.168;9.848;2023-06-24T10:18:39;97659.22;;;29.80;38.37
40838;BME280;29632;49.168;9.848;2023-06-24T10:21:06;97648.06;;;29.88;37.93
40838;BME280;29632;49.168;9.848;2023-06-24T10:37:04;97647.03;;;30.34;37.52
40838;BME280;29632;49.168;9.848;2023-06-24T10:42:31;97627.56;;;30.43;37.52
40838;BME280;29632;49.168;9.848;2023-06-24T10:45:18;97631.88;;;30.44;37.93
40838;BME280;29632;49.168;9.848;2023-06-24T10:47:46;97631.63;;;30.46;37.61
40838;BME280;29632;49.168;9.848;2023-06-24T10:50:20;97627.84;;;30.47;37.34
40838;BME280;29632;49.168;9.848;2023-06-24T10:52:51;97621.97;;;30.50;37.63
40838;BME280;29632;49.168;9.848;2023-06-24T10:55:21;97616.91;;;30.54;37.69
40838;BME280;29632;49.168;9.848;2023-06-24T10:57:47;97617.78;;;30.59;37.53
40838;BME280;29632;49.168;9.848;2023-06-24T11:00:13;97613.25;;;30.65;37.39
40838;BME280;29632;49.168;9.848;2023-06-24T11:02:40;97607.13;;;30.69;37.49
40838;BME280;29632;49.168;9.848;2023-06-24T11:05:06;97611.50;;;30.76;37.39
40838;BME280;29632;49.168;9.848;2023-06-24T11:07:34;97608.28;;;30.79;37.00
40838;BME280;29632;49.168;9.848;2023-06-24T11:10:07;97607.28;;;30.85;37.27
40838;BME280;29632;49.168;9.848;2023-06-24T11:12:34;97605.44;;;30.91;36.99
40838;BME280;29632;49.168;9.848;2023-06-24T11:15:05;97594.50;;;30.97;36.81
40838;BME280;29632;49.168;9.848;2023-06-24T11:17:32;97592.97;;;31.06;36.76
40838;BME280;29632;49.168;9.848;2023-06-24T11:19:58;97593.56;;;31.14;36.98
40838;BME280;29632;49.168;9.848;2023-06-24T11:22:25;97589.59;;;31.21;36.81
40838;BME280;29632;49.168;9.848;2023-06-24T11:24:51;97590.44;;;31.27;36.47
40838;BME280;29632;49.168;9.848;2023-06-24T11:27:19;97594.22;;;31.31;36.68
40838;BME280;29632;49.168;9.848;2023-06-24T11:29:48;97584.03;;;31.33;36.76
40838;BME280;29632;49.168;9.848;2023-06-24T11:32:16;97592.41;;;31.37;36.44
40838;BME280;29632;49.168;9.848;2023-06-24T11:34:42;97583.00;;;31.39;36.51
40838;BME280;29632;49.168;9.848;2023-06-24T11:39:36;97581.06;;;31.35;36.31
40838;BME280;29632;49.168;9.848;2023-06-24T11:42:02;97587.28;;;31.35;35.92
40838;BME280;29632;49.168;9.848;2023-06-24T11:44:31;97575.97;;;31.33;36.32
40838;BME280;29632;49.168;9.848;2023-06-24T11:47:07;97575.44;;;31.36;36.12
40838;BME280;29632;49.168;9.848;2023-06-24T11:49:48;97566.88;;;31.44;36.06
40838;BME280;29632;49.168;9.848;2023-06-24T11:52:14;97567.94;;;31.43;35.81
40838;BME280;29632;49.168;9.848;2023-06-24T11:54:42;97570.94;;;31.47;35.58
40838;BME280;29632;49.168;9.848;2023-06-24T11:57:09;97574.44;;;31.48;35.74
40838;BME280;29632;49.168;9.848;2023-06-24T11:59:35;97577.13;;;31.48;35.83
40838;BME280;29632;49.168;9.848;2023-06-24T12:02:00;97568.50;;;31.46;35.85
40838;BME280;29632;49.168;9.848;2023-06-24T12:04:29;97556.91;;;31.45;35.66
40838;BME280;29632;49.168;9.848;2023-06-24T12:06:55;97558.56;;;31.46;35.82
40838;BME280;29632;49.168;9.848;2023-06-24T12:09:21;97558.06;;;31.49;35.84
40838;BME280;29632;49.168;9.848;2023-06-24T12:11:47;97558.63;;;31.51;35.38
40838;BME280;29632;49.168;9.848;2023-06-24T12:14:12;97551.34;;;31.52;35.57
40838;BME280;29632;49.168;9.848;2023-06-24T12:16:39;97548.34;;;31.48;35.37
40838;BME280;29632;49.168;9.848;2023-06-24T12:19:08;97543.19;;;31.47;35.59
40838;BME280;29632;49.168;9.848;2023-06-24T12:21:34;97536.44;;;31.39;35.45
40838;BME280;29632;49.168;9.848;2023-06-24T12:24:01;97535.88;;;31.32;35.28
40838;BME280;29632;49.168;9.848;2023-06-24T12:26:27;97535.03;;;31.31;35.25
40838;BME280;29632;49.168;9.848;2023-06-24T12:28:56;97537.22;;;31.34;35.17
40838;BME280;29632;49.168;9.848;2023-06-24T12:31:22;97536.97;;;31.36;35.29
40838;BME280;29632;49.168;9.848;2023-06-24T12:33:48;97530.25;;;31.38;34.91
40838;BME280;29632;49.168;9.848;2023-06-24T12:36:14;97531.56;;;31.36;35.16
40838;BME280;29632;49.168;9.848;2023-06-24T12:38:39;97531.84;;;31.34;35.04
40838;BME280;29632;49.168;9.848;2023-06-24T12:41:05;97528.34;;;31.34;34.80
40838;BME280;29632;49.168;9.848;2023-06-24T12:43:32;97520.56;;;31.37;34.83
40838;BME280;29632;49.168;9.848;2023-06-24T12:45:58;97525.16;;;31.42;34.65
40838;BME280;29632;49.168;9.848;2023-06-24T12:48:23;97524.91;;;31.49;34.94
40838;BME280;29632;49.168;9.848;2023-06-24T12:50:49;97520.41;;;31.54;34.56
40838;BME280;29632;49.168;9.848;2023-06-24T12:53:19;97515.88;;;31.60;34.50
40838;BME280;29632;49.168;9.848;2023-06-24T12:55:44;97517.22;;;31.68;34.54
40838;BME280;29632;49.168;9.848;2023-06-24T12:58:10;97520.22;;;31.76;34.51
40838;BME280;29632;49.168;9.848;2023-06-24T13:00:35;97527.81;;;31.85;34.38
40838;BME280;29632;49.168;9.848;2023-06-24T13:03:01;97515.44;;;31.94;34.30
40838;BME280;29632;49.168;9.848;2023-06-24T13:05:27;97506.31;;;32.00;33.98
40838;BME280;29632;49.168;9.848;2023-06-24T13:07:52;97506.91;;;32.07;34.19
40838;BME280;29632;49.168;9.848;2023-06-24T13:10:18;97511.78;;;32.15;33.98
40838;BME280;29632;49.168;9.848;2023-06-24T13:12:44;97509.09;;;32.21;33.94
40838;BME280;29632;49.168;9.848;2023-06-24T13:15:09;97502.38;;;32.23;33.96
40838;BME280;29632;49.168;9.848;2023-06-24T13:17:35;97498.59;;;32.24;33.99
40838;BME280;29632;49.168;9.848;2023-06-24T13:20:02;97499.66;;;32.23;33.98
40838;BME280;29632;49.168;9.848;2023-06-24T13:22:30;97498.31;;;32.26;33.70
40838;BME280;29632;49.168;9.848;2023-06-24T13:24:56;97497.25;;;32.27;33.85
40838;BME280;29632;49.168;9.848;2023-06-24T13:27:22;97503.44;;;32.27;33.53
40838;BME280;29632;49.168;9.848;2023-06-24T13:29:47;97498.06;;;32.27;34.06
40838;BME280;29632;49.168;9.848;2023-06-24T13:32:13;97491.84;;;32.27;33.89